KAND/AND METAR and TAF weather

Enter ICAO airport designator
Station Type Date Time Source
KAND METAR 2018/10/19 14:56 UTC NOAA

KAND 191456Z AUTO 06004KT 10SM CLR 16/07 A3035 RMK AO2 SLP274 T01610072 58001


Station Type Date Time Source
KAND Decoded METAR 2018/10/19 14:56 UTC NOAA

ANDERSON COUNTY AIRPORT, SC, United States (KAND) 34-30N 82-43W 239M
Oct 19, 2018 - 10:56 AM EDT / 2018.10.19 1456 UTC
Wind: from the ENE (060 degrees) at 5 MPH (4 KT):0
Visibility: 10 mile(s):0
Sky conditions: clear
Temperature: 61.0 F (16.1 C)
Dew Point: 45.0 F (7.2 C)
Relative Humidity: 55%
Pressure (altimeter): 30.35 in. Hg (1027 hPa)
Pressure tendency: 0.00 inches (0.1 hPa) lower than three hours ago
ob: KAND 191456Z AUTO 06004KT 10SM CLR 16/07 A3035 RMK AO2 SLP274 T01610072 58001
cycle: 15

Station Type Date Time Source
KAND TAF 2018/10/19 12:34 UTC NOAA

TAF KAND 191131Z 1912/2012 04004KT P6SM FEW040 FEW200
FM200000 VRB03KT P6SM BKN040 BKN150
FM200300 22004KT P6SM BKN050
FM200800 24006KT P6SM OVC025
FM201100 24006KT P6SM OVC035


Example: see airport list